createdAt,value
2018-09-21T00:00:53.329Z,49.30
2018-09-21T00:03:21.702Z,49.30
2018-09-21T00:05:57.121Z,49.30
2018-09-21T00:08:25.449Z,49.30
2018-09-21T00:10:53.924Z,49.30
2018-09-21T00:13:22.255Z,49.30
2018-09-21T00:15:56.319Z,49.40
2018-09-21T00:18:24.692Z,49.40
2018-09-21T00:20:53.256Z,49.40
2018-09-21T00:23:21.721Z,49.50
2018-09-21T00:25:59.696Z,49.50
2018-09-21T00:28:28.157Z,49.60
2018-09-21T00:30:56.750Z,49.60
2018-09-21T00:33:25.128Z,49.60
2018-09-21T00:35:57.225Z,49.70
2018-09-21T00:38:25.576Z,49.80
2018-09-21T00:41:02.262Z,49.80
2018-09-21T00:43:30.592Z,49.80
2018-09-21T00:46:01.126Z,49.90
2018-09-21T00:48:29.485Z,49.90
2018-09-21T00:50:58.132Z,50.00
2018-09-21T00:53:26.534Z,50.10
2018-09-21T00:55:58.218Z,50.20
2018-09-21T00:58:26.627Z,50.20
2018-09-21T01:01:02.582Z,50.30
2018-09-21T01:03:30.930Z,50.30
2018-09-21T01:05:59.441Z,50.40
2018-09-21T01:08:27.820Z,50.50
2018-09-21T01:11:04.762Z,50.40
2018-09-21T01:13:33.148Z,50.50
2018-09-21T01:16:03.617Z,50.60
2018-09-21T01:18:32.019Z,50.60
2018-09-21T01:21:03.848Z,50.70
2018-09-21T01:23:32.247Z,50.80
2018-09-21T01:26:00.719Z,50.80
2018-09-21T01:28:29.183Z,51.00
2018-09-21T01:31:03.302Z,51.10
2018-09-21T01:33:31.714Z,51.10
2018-09-21T01:36:01.253Z,51.10
2018-09-21T01:38:29.629Z,51.20
2018-09-21T01:41:01.506Z,51.30
2018-09-21T01:43:29.869Z,51.40
2018-09-21T01:45:58.345Z,51.40
2018-09-21T01:48:26.713Z,51.50
2018-09-21T01:51:01.633Z,51.40
2018-09-21T01:53:30.000Z,51.20
2018-09-21T01:56:00.449Z,51.30
2018-09-21T01:58:28.818Z,51.50
2018-09-21T02:00:57.215Z,51.60
2018-09-21T02:03:25.576Z,51.80
2018-09-21T02:05:54.044Z,51.90
2018-09-21T02:08:22.478Z,51.90
2018-09-21T02:11:09.575Z,52.10
2018-09-21T02:13:37.967Z,52.20
2018-09-21T02:16:10.250Z,52.30
2018-09-21T02:18:38.612Z,52.50
2018-09-21T02:21:08.208Z,52.50
2018-09-21T02:23:36.540Z,52.60
2018-09-21T02:26:04.949Z,52.80
2018-09-21T02:28:33.281Z,52.90
2018-09-21T02:31:02.013Z,52.90
2018-09-21T02:33:30.339Z,53.10
2018-09-21T02:36:02.329Z,53.10
2018-09-21T02:38:30.682Z,53.20
2018-09-21T02:40:59.117Z,53.20
2018-09-21T02:43:27.499Z,53.30
2018-09-21T02:46:03.891Z,54.10
2018-09-21T02:48:32.252Z,53.40
2018-09-21T02:51:02.752Z,53.60
2018-09-21T02:53:31.096Z,53.60
2018-09-21T02:55:59.559Z,53.60
2018-09-21T02:58:27.903Z,53.70
2018-09-21T03:00:57.406Z,53.70
2018-09-21T03:03:25.695Z,53.80
2018-09-21T03:05:58.919Z,53.80
2018-09-21T03:08:27.304Z,53.90
2018-09-21T03:10:59.014Z,53.90
2018-09-21T03:13:27.392Z,53.80
2018-09-21T03:15:55.866Z,54.00
2018-09-21T03:18:24.217Z,54.00
2018-09-21T03:20:56.329Z,54.00
2018-09-21T03:23:24.709Z,54.60
2018-09-21T03:25:53.168Z,54.00
2018-09-21T03:28:21.550Z,54.10
2018-09-21T03:30:54.961Z,54.10
2018-09-21T03:33:23.364Z,54.20
2018-09-21T03:35:58.095Z,54.00
2018-09-21T03:38:26.469Z,54.20
2018-09-21T03:41:11.876Z,54.00
2018-09-21T03:43:40.234Z,54.10
2018-09-21T03:46:08.709Z,54.30
2018-09-21T03:48:37.066Z,54.20
2018-09-21T03:51:07.700Z,55.00
2018-09-21T03:53:36.100Z,54.20
2018-09-21T03:56:22.947Z,54.30
2018-09-21T03:58:51.302Z,54.30
2018-09-21T04:04:17.016Z,54.20
2018-09-21T04:06:45.380Z,54.20
2018-09-21T04:09:14.828Z,54.30
2018-09-21T04:11:43.193Z,54.30
2018-09-21T04:14:14.960Z,54.20
2018-09-21T04:16:43.311Z,54.20
2018-09-21T04:19:15.588Z,54.10
2018-09-21T04:21:43.934Z,54.00
2018-09-21T04:24:20.712Z,54.10
2018-09-21T04:26:49.057Z,54.00
2018-09-21T04:29:24.990Z,54.00
2018-09-21T04:31:53.384Z,54.00
2018-09-21T04:34:25.739Z,54.00
2018-09-21T04:36:54.165Z,54.00
2018-09-21T04:39:29.941Z,54.10
2018-09-21T04:41:58.304Z,54.00
2018-09-21T04:44:36.831Z,54.00
2018-09-21T04:47:05.251Z,53.90
2018-09-21T04:49:39.328Z,53.90
2018-09-21T04:52:07.694Z,53.80
2018-09-21T04:54:41.740Z,53.70
2018-09-21T04:57:10.128Z,53.70
2018-09-21T04:59:48.049Z,53.60
2018-09-21T05:02:16.403Z,53.60
2018-09-21T05:04:49.374Z,54.10
2018-09-21T05:07:17.748Z,53.40
2018-09-21T05:09:47.168Z,53.40
2018-09-21T05:12:15.484Z,53.40
2018-09-21T05:14:47.648Z,53.00
2018-09-21T05:17:16.076Z,53.30
2018-09-21T05:19:44.574Z,52.70
2018-09-21T05:22:12.908Z,53.10
2018-09-21T05:24:47.209Z,53.10
2018-09-21T05:27:15.562Z,53.20
2018-09-21T05:29:47.155Z,53.10
2018-09-21T05:32:15.532Z,53.00
2018-09-21T05:34:47.015Z,53.20
2018-09-21T05:37:15.338Z,53.10
2018-09-21T05:39:43.823Z,53.20
2018-09-21T05:42:12.218Z,53.30
2018-09-21T05:44:48.590Z,53.40
2018-09-21T05:47:17.194Z,53.30
2018-09-21T05:49:45.740Z,53.10
2018-09-21T05:52:14.098Z,53.00
2018-09-21T05:54:43.542Z,53.10
2018-09-21T05:57:11.941Z,53.10
2018-09-21T05:59:41.395Z,53.00
2018-09-21T06:02:09.815Z,52.90
2018-09-21T06:04:41.430Z,52.90
2018-09-21T06:07:09.790Z,53.00
2018-09-21T06:09:42.012Z,53.00
2018-09-21T06:12:10.356Z,53.00
2018-09-21T06:14:38.841Z,53.00
2018-09-21T06:17:07.195Z,53.00
2018-09-21T06:19:38.899Z,53.10
2018-09-21T06:22:07.355Z,53.20
2018-09-21T06:24:39.392Z,53.20
2018-09-21T06:27:07.880Z,53.30
2018-09-21T06:29:36.338Z,53.20
2018-09-21T06:32:04.704Z,53.30
2018-09-21T06:34:33.148Z,53.30
2018-09-21T06:37:01.516Z,53.40
2018-09-21T06:39:42.102Z,53.50
2018-09-21T06:42:10.479Z,53.50
2018-09-21T06:44:38.936Z,53.50
2018-09-21T06:47:07.271Z,53.60
2018-09-21T06:49:41.276Z,53.50
2018-09-21T06:52:09.629Z,53.40
2018-09-21T06:54:41.222Z,53.40
2018-09-21T06:57:09.572Z,53.40
2018-09-21T06:59:41.769Z,53.30
2018-09-21T07:02:10.297Z,53.30
2018-09-21T07:04:38.793Z,53.30
2018-09-21T07:07:07.269Z,53.30
2018-09-21T07:09:40.142Z,53.10
2018-09-21T07:12:08.634Z,52.90
2018-09-21T07:14:37.142Z,52.90
2018-09-21T07:17:05.503Z,52.80
2018-09-21T07:19:39.937Z,52.70
2018-09-21T07:22:08.361Z,52.40
2018-09-21T07:24:37.776Z,52.30
2018-09-21T07:27:06.228Z,52.30
2018-09-21T07:29:38.252Z,52.20
2018-09-21T07:32:06.693Z,52.10
2018-09-21T07:34:35.182Z,52.10
2018-09-21T07:37:03.685Z,51.80
2018-09-21T07:39:32.212Z,51.60
2018-09-21T07:42:00.573Z,51.40
2018-09-21T07:44:32.593Z,51.40
2018-09-21T07:47:00.952Z,51.20
2018-09-21T07:49:31.427Z,51.10
2018-09-21T07:51:59.843Z,51.00
2018-09-21T07:54:29.318Z,50.80
2018-09-21T07:56:57.690Z,50.60
2018-09-21T07:59:34.651Z,50.30
2018-09-21T08:02:03.109Z,50.00
2018-09-21T08:04:31.529Z,49.70
2018-09-21T08:06:59.970Z,49.80
2018-09-21T08:09:32.331Z,49.70
2018-09-21T08:12:00.978Z,49.60
2018-09-21T08:14:34.980Z,49.50
2018-09-21T08:17:03.418Z,49.40
2018-09-21T08:19:33.937Z,49.50
2018-09-21T08:22:02.294Z,49.50
2018-09-21T08:24:30.783Z,49.60
2018-09-21T08:26:59.136Z,49.60
2018-09-21T08:29:33.534Z,49.70
2018-09-21T08:32:02.192Z,49.60
2018-09-21T08:34:30.623Z,49.70
2018-09-21T08:36:59.101Z,49.70
2018-09-21T08:39:38.232Z,49.70
2018-09-21T08:42:06.579Z,49.90
2018-09-21T08:44:41.995Z,50.00
2018-09-21T08:47:10.362Z,50.10
2018-09-21T08:49:43.405Z,50.60
2018-09-21T08:52:11.778Z,50.10
2018-09-21T08:54:40.319Z,50.20
2018-09-21T08:57:08.663Z,50.90
2018-09-21T08:59:39.212Z,51.50
2018-09-21T09:02:07.581Z,52.00
2018-09-21T09:04:36.204Z,52.40
2018-09-21T09:07:05.703Z,53.80
2018-09-21T09:09:36.151Z,55.40
2018-09-21T09:12:04.483Z,56.50
2018-09-21T09:14:45.873Z,57.90
2018-09-21T09:17:14.495Z,59.30
2018-09-21T09:20:02.119Z,60.10
2018-09-21T09:22:30.437Z,59.20
2018-09-21T09:25:07.993Z,59.10
2018-09-21T09:27:36.676Z,57.50
2018-09-21T09:30:08.830Z,57.40
2018-09-21T09:32:38.629Z,57.10
2018-09-21T09:35:15.296Z,57.40
2018-09-21T09:37:43.730Z,57.90
2018-09-21T09:40:25.527Z,58.20
2018-09-21T09:42:53.929Z,59.00
2018-09-21T09:45:23.455Z,59.70
2018-09-21T09:47:52.241Z,60.40
2018-09-21T09:50:20.777Z,62.10
2018-09-21T09:52:49.224Z,61.80
2018-09-21T09:55:22.512Z,62.20
2018-09-21T09:57:50.873Z,62.70
2018-09-21T10:00:25.754Z,63.10
2018-09-21T10:02:54.171Z,63.60
2018-09-21T10:05:22.569Z,64.00
2018-09-21T10:07:50.920Z,64.50
2018-09-21T10:10:27.645Z,65.20
2018-09-21T10:12:55.884Z,65.50
2018-09-21T10:15:24.393Z,65.90
2018-09-21T10:17:52.722Z,66.00
2018-09-21T10:20:21.096Z,65.80
2018-09-21T10:22:49.487Z,65.90
2018-09-21T10:25:18.044Z,66.10
2018-09-21T10:27:46.539Z,66.00
2018-09-21T10:30:14.903Z,66.00
2018-09-21T10:32:43.218Z,66.60
2018-09-21T10:35:11.698Z,66.70
2018-09-21T10:37:40.084Z,66.50
2018-09-21T10:40:08.791Z,66.60
2018-09-21T10:42:37.075Z,66.60
2018-09-21T10:45:05.406Z,66.90
2018-09-21T10:47:33.808Z,66.70
2018-09-21T10:50:03.329Z,66.50
2018-09-21T10:52:31.679Z,66.20
2018-09-21T10:55:00.201Z,66.30
2018-09-21T10:57:28.709Z,66.10
2018-09-21T10:59:57.152Z,65.90
2018-09-21T11:02:25.521Z,65.90
2018-09-21T11:04:55.155Z,66.10
2018-09-21T11:07:23.521Z,66.00
2018-09-21T11:09:52.601Z,66.30
2018-09-21T11:12:20.985Z,66.30
2018-09-21T11:14:49.504Z,66.60
2018-09-21T11:17:17.985Z,67.10
2018-09-21T11:19:46.617Z,66.50
2018-09-21T11:22:15.025Z,66.50
2018-09-21T11:24:43.503Z,66.40
2018-09-21T11:27:11.889Z,66.70
2018-09-21T11:29:40.441Z,66.70
2018-09-21T11:32:08.791Z,66.40
2018-09-21T11:34:37.336Z,66.00
2018-09-21T11:37:05.947Z,66.40
2018-09-21T11:39:34.761Z,66.50
2018-09-21T11:42:03.137Z,66.70
2018-09-21T11:44:31.604Z,66.80
2018-09-21T11:46:59.958Z,66.80
2018-09-21T11:49:28.444Z,66.40
2018-09-21T11:51:56.815Z,66.10
2018-09-21T11:54:25.460Z,66.10
2018-09-21T11:56:53.802Z,65.30
2018-09-21T11:59:23.449Z,65.30
2018-09-21T12:01:51.911Z,65.00
2018-09-21T12:04:20.360Z,64.80
2018-09-21T12:06:48.731Z,64.80
2018-09-21T12:09:27.844Z,65.00
2018-09-21T12:11:56.771Z,64.80
2018-09-21T12:14:25.430Z,64.70
2018-09-21T12:16:53.882Z,64.90
2018-09-21T12:19:22.448Z,65.00
2018-09-21T12:21:50.847Z,64.80
2018-09-21T12:24:19.302Z,64.80
2018-09-21T12:26:47.683Z,64.50
2018-09-21T12:29:16.236Z,64.50
2018-09-21T12:31:44.609Z,64.10
2018-09-21T12:34:13.041Z,63.80
2018-09-21T12:36:41.416Z,63.70
2018-09-21T12:39:11.921Z,63.50
2018-09-21T12:41:40.300Z,61.30
2018-09-21T12:44:10.230Z,58.30
2018-09-21T12:46:38.608Z,56.10
2018-09-21T12:49:07.218Z,54.70
2018-09-21T12:51:36.106Z,53.60
2018-09-21T12:54:04.680Z,52.50
2018-09-21T12:56:33.109Z,51.40
2018-09-21T12:59:01.519Z,50.70
2018-09-21T13:01:29.880Z,50.70
2018-09-21T13:03:58.429Z,50.00
2018-09-21T13:06:26.880Z,49.10
2018-09-21T13:08:55.417Z,48.50
2018-09-21T13:11:23.809Z,48.30
2018-09-21T13:13:52.361Z,48.10
2018-09-21T13:16:20.757Z,48.20
2018-09-21T13:18:49.214Z,48.50
2018-09-21T13:21:17.600Z,48.60
2018-09-21T13:23:46.024Z,48.50
2018-09-21T13:26:14.344Z,48.50
2018-09-21T13:28:42.822Z,48.70
2018-09-21T13:31:11.183Z,49.00
2018-09-21T13:33:43.520Z,48.50
2018-09-21T13:36:11.898Z,47.70
2018-09-21T13:38:40.444Z,47.10
2018-09-21T13:41:08.799Z,47.50
2018-09-21T13:43:37.643Z,47.10
2018-09-21T13:46:05.990Z,47.20
2018-09-21T13:48:34.413Z,47.40
2018-09-21T13:51:02.775Z,47.10
2018-09-21T13:53:31.365Z,46.60
2018-09-21T13:55:59.743Z,46.90
2018-09-21T13:58:28.428Z,47.10
2018-09-21T14:00:56.801Z,47.20
2018-09-21T14:03:29.159Z,47.60
2018-09-21T14:06:01.757Z,47.50
2018-09-21T14:08:36.297Z,47.20
2018-09-21T14:11:05.002Z,47.10
2018-09-21T14:13:33.460Z,47.10
2018-09-21T14:16:01.873Z,47.20
2018-09-21T14:18:30.332Z,47.30
2018-09-21T14:20:58.744Z,47.30
2018-09-21T14:23:27.279Z,47.40
2018-09-21T14:25:55.690Z,47.70
2018-09-21T14:28:24.319Z,47.50
2018-09-21T14:30:52.732Z,47.00
2018-09-21T14:33:21.281Z,46.70
2018-09-21T14:35:49.748Z,46.60
2018-09-21T14:38:18.080Z,46.70
2018-09-21T14:40:46.608Z,46.60
2018-09-21T14:43:14.918Z,46.60
2018-09-21T14:45:50.202Z,46.30
2018-09-21T14:48:18.816Z,45.90
2018-09-21T14:50:51.245Z,45.80
2018-09-21T14:53:20.073Z,45.20
2018-09-21T14:55:51.972Z,44.10
2018-09-21T14:58:20.860Z,44.00
2018-09-21T15:00:51.035Z,43.90
2018-09-21T15:03:19.579Z,43.60
2018-09-21T15:05:48.612Z,43.20
2018-09-21T15:08:16.967Z,42.80
2018-09-21T15:10:45.441Z,42.10
2018-09-21T15:13:13.814Z,41.90
2018-09-21T15:15:44.181Z,41.20
2018-09-21T15:18:12.536Z,40.30
2018-09-21T15:20:40.989Z,39.90
2018-09-21T15:23:09.400Z,40.00
2018-09-21T15:25:37.999Z,39.80
2018-09-21T15:28:06.345Z,39.80
2018-09-21T15:30:34.861Z,39.70
2018-09-21T15:33:04.208Z,39.70
2018-09-21T15:35:32.763Z,39.50
2018-09-21T15:38:01.112Z,39.40
2018-09-21T15:40:41.777Z,39.20
2018-09-21T15:43:10.350Z,38.90
2018-09-21T15:45:40.024Z,38.90
2018-09-21T15:48:08.662Z,39.00
2018-09-21T15:50:37.308Z,39.00
2018-09-21T15:53:05.729Z,39.00
2018-09-21T15:55:36.267Z,39.30
2018-09-21T15:58:04.677Z,39.80
2018-09-21T16:00:33.208Z,39.70
2018-09-21T16:03:01.581Z,39.40
2018-09-21T16:05:30.116Z,39.50
2018-09-21T16:07:58.562Z,40.60
2018-09-21T16:10:27.058Z,39.90
2018-09-21T16:12:55.451Z,39.60
2018-09-21T16:15:25.108Z,39.20
2018-09-21T16:17:53.776Z,39.00
2018-09-21T16:20:23.076Z,39.00
2018-09-21T16:22:51.457Z,38.70
2018-09-21T16:25:20.045Z,38.80
2018-09-21T16:27:48.364Z,38.30
2018-09-21T16:30:20.356Z,38.70
2018-09-21T16:32:48.720Z,38.80
2018-09-21T16:35:24.233Z,38.80
2018-09-21T16:37:52.642Z,39.00
2018-09-21T16:40:21.522Z,39.20
2018-09-21T16:42:50.209Z,39.10
2018-09-21T16:45:18.661Z,39.30
2018-09-21T16:47:47.096Z,39.40
2018-09-21T16:50:16.079Z,39.50
2018-09-21T16:52:44.447Z,39.60
2018-09-21T16:55:12.981Z,40.00
2018-09-21T16:57:41.444Z,40.30
2018-09-21T17:00:09.995Z,40.30
2018-09-21T17:02:39.474Z,40.00
2018-09-21T17:05:07.886Z,40.00
2018-09-21T17:07:36.389Z,39.60
2018-09-21T17:10:04.840Z,39.10
2018-09-21T17:12:36.767Z,38.60
2018-09-21T17:15:05.244Z,38.50
2018-09-21T17:17:41.090Z,38.50
2018-09-21T17:20:09.547Z,38.30
2018-09-21T17:22:38.078Z,38.10
2018-09-21T17:25:12.839Z,38.20
2018-09-21T17:27:41.246Z,38.10
2018-09-21T17:30:09.814Z,38.20
2018-09-21T17:32:38.188Z,38.00
2018-09-21T17:35:14.631Z,38.10
2018-09-21T17:37:42.949Z,38.10
2018-09-21T17:40:11.433Z,38.30
2018-09-21T17:42:39.784Z,38.50
2018-09-21T17:45:08.312Z,38.60
2018-09-21T17:47:36.649Z,38.80
2018-09-21T17:50:05.715Z,38.90
2018-09-21T17:52:34.053Z,39.00
2018-09-21T17:55:02.630Z,38.90
2018-09-21T17:57:30.984Z,38.90
2018-09-21T17:59:59.416Z,39.00
2018-09-21T18:02:27.786Z,39.00
2018-09-21T18:04:56.228Z,39.00
2018-09-21T18:07:28.706Z,39.00
2018-09-21T18:09:56.997Z,39.10
2018-09-21T18:12:32.365Z,39.30
2018-09-21T18:15:00.692Z,39.50
2018-09-21T18:17:33.364Z,39.70
2018-09-21T18:20:01.746Z,39.70
2018-09-21T18:22:30.259Z,39.80
2018-09-21T18:24:58.575Z,39.80
2018-09-21T18:27:30.901Z,39.80
2018-09-21T18:29:59.321Z,39.60
2018-09-21T18:32:29.809Z,39.30
2018-09-21T18:34:58.189Z,39.10
2018-09-21T18:37:30.030Z,39.20
2018-09-21T18:39:58.443Z,38.90
2018-09-21T18:42:30.473Z,38.60
2018-09-21T18:44:58.781Z,38.40
2018-09-21T18:47:30.938Z,38.40
2018-09-21T18:49:59.302Z,38.20
2018-09-21T18:52:27.496Z,39.00
2018-09-21T18:54:55.691Z,40.10
2018-09-21T18:57:23.999Z,41.50
2018-09-21T18:59:52.214Z,42.40
2018-09-21T19:02:20.502Z,43.00
2018-09-21T19:04:48.686Z,43.20
2018-09-21T19:07:22.199Z,44.10
2018-09-21T19:09:50.378Z,44.70
2018-09-21T19:12:18.543Z,45.20
2018-09-21T19:14:46.710Z,45.60
2018-09-21T19:17:14.930Z,46.10
2018-09-21T19:19:43.139Z,46.20
2018-09-21T19:22:11.292Z,47.20
2018-09-21T19:24:39.450Z,47.60
2018-09-21T19:27:07.646Z,47.90
2018-09-21T19:29:35.804Z,48.60
2018-09-21T19:32:04.002Z,49.00
2018-09-21T19:34:32.232Z,49.70
2018-09-21T19:37:00.499Z,50.30
2018-09-21T19:39:28.708Z,51.20
2018-09-21T19:41:57.031Z,52.00
2018-09-21T19:44:25.190Z,52.50
2018-09-21T19:46:53.415Z,53.50
2018-09-21T19:49:21.652Z,54.20
2018-09-21T19:51:49.904Z,54.60
2018-09-21T19:54:18.074Z,55.30
2018-09-21T19:56:46.359Z,56.00
2018-09-21T19:59:14.542Z,56.60
2018-09-21T20:01:42.728Z,57.00
2018-09-21T20:04:10.956Z,57.40
2018-09-21T20:06:39.151Z,57.40
2018-09-21T20:09:08.890Z,58.20
2018-09-21T20:11:37.197Z,58.50
2018-09-21T20:14:05.501Z,58.90
2018-09-21T20:16:33.819Z,59.60
2018-09-21T20:19:01.960Z,60.10
2018-09-21T20:21:30.122Z,60.40
2018-09-21T20:23:58.329Z,60.80
2018-09-21T20:26:26.499Z,61.20
2018-09-21T20:28:54.667Z,61.70
2018-09-21T20:31:28.699Z,62.30
2018-09-21T20:33:56.863Z,62.70
2018-09-21T20:36:25.023Z,63.00
2018-09-21T20:38:53.222Z,63.10
2018-09-21T20:41:21.377Z,63.20
2018-09-21T20:43:49.550Z,63.00
2018-09-21T20:46:17.725Z,62.80
2018-09-21T20:48:45.886Z,62.90
2018-09-21T20:51:14.046Z,62.80
2018-09-21T20:53:42.198Z,62.60
2018-09-21T20:56:10.363Z,62.40
2018-09-21T20:58:38.530Z,62.40
2018-09-21T21:01:06.686Z,62.60
2018-09-21T21:03:34.855Z,63.00
2018-09-21T21:06:03.110Z,62.90
2018-09-21T21:08:31.257Z,61.80
2018-09-21T21:10:59.469Z,62.40
2018-09-21T21:13:27.647Z,62.10
2018-09-21T21:15:55.803Z,61.80
2018-09-21T21:18:23.947Z,61.80
2018-09-21T21:20:52.123Z,62.70
2018-09-21T21:23:20.289Z,61.80
2018-09-21T21:25:48.442Z,62.00
2018-09-21T21:28:16.590Z,62.50
2018-09-21T21:30:44.784Z,61.70
2018-09-21T21:33:12.930Z,61.70
2018-09-21T21:35:41.111Z,61.80
2018-09-21T21:38:09.508Z,61.70
2018-09-21T21:40:37.695Z,61.60
2018-09-21T21:43:05.862Z,61.90
2018-09-21T21:45:34.014Z,62.20
2018-09-21T21:48:02.179Z,62.10
2018-09-21T21:50:30.326Z,62.70
2018-09-21T21:52:58.490Z,62.70
2018-09-21T21:55:26.666Z,62.70
2018-09-21T21:57:54.817Z,63.00
2018-09-21T22:00:22.987Z,62.90
2018-09-21T22:02:51.177Z,63.00
2018-09-21T22:05:19.362Z,63.00
2018-09-21T22:07:47.529Z,63.20
2018-09-21T22:10:15.690Z,63.70
2018-09-21T22:12:49.226Z,64.10
2018-09-21T22:15:18.660Z,64.40
2018-09-21T22:17:47.547Z,64.80
2018-09-21T22:20:15.744Z,66.00
2018-09-21T22:22:43.912Z,65.40
2018-09-21T22:25:12.267Z,65.50
2018-09-21T22:27:40.861Z,65.40
2018-09-21T22:30:09.426Z,64.90
2018-09-21T22:32:38.119Z,65.00
2018-09-21T22:35:06.290Z,65.00
2018-09-21T22:37:34.462Z,65.40
2018-09-21T22:40:02.622Z,65.00
2018-09-21T22:42:30.814Z,65.00
2018-09-21T22:44:59.072Z,65.10
2018-09-21T22:47:27.197Z,65.20
2018-09-21T22:49:55.396Z,65.10
2018-09-21T22:52:23.581Z,65.00
2018-09-21T22:54:51.773Z,65.10
2018-09-21T22:57:19.954Z,65.00
2018-09-21T22:59:48.112Z,65.00
2018-09-21T23:02:16.274Z,65.10
2018-09-21T23:04:44.553Z,65.10
2018-09-21T23:07:12.827Z,64.90
2018-09-21T23:09:40.990Z,64.90
2018-09-21T23:12:09.137Z,64.50
2018-09-21T23:14:37.323Z,64.10
2018-09-21T23:17:05.469Z,64.20
2018-09-21T23:19:33.630Z,64.20
2018-09-21T23:22:01.807Z,64.20
2018-09-21T23:24:29.958Z,64.30
2018-09-21T23:26:58.126Z,64.10
2018-09-21T23:29:26.302Z,63.90
2018-09-21T23:31:54.596Z,63.80
2018-09-21T23:34:22.650Z,63.90
2018-09-21T23:36:50.798Z,63.60
2018-09-21T23:39:18.988Z,63.40
2018-09-21T23:41:47.143Z,63.60
2018-09-21T23:44:15.410Z,63.60
2018-09-21T23:46:44.367Z,63.60
2018-09-21T23:49:12.572Z,63.70
2018-09-21T23:51:40.727Z,63.70
2018-09-21T23:54:08.915Z,63.70
2018-09-21T23:56:37.059Z,63.90
2018-09-21T23:59:05.231Z,64.00
